TimeEDT,TemperatureF,Dew PointF,Humidity,Sea Level PressureIn,VisibilityMPH,Wind Direction,Wind SpeedMPH,Gust SpeedMPH,PrecipitationIn,Events,Conditions,WindDirDegrees,DateUTC
12:15 AM,62.6,62.6,100,30.12,2.5,Calm,Calm,-,N/A,,Clear,0,2013-04-18 04:15:00
12:35 AM,62.6,62.6,100,30.12,5.0,Calm,Calm,-,N/A,,Clear,0,2013-04-18 04:35:00
12:55 AM,62.6,62.6,100,30.11,3.0,Calm,Calm,-,N/A,,Clear,0,2013-04-18 04:55:00
1:15 AM,62.6,62.6,100,30.10,5.0,Calm,Calm,-,N/A,,Clear,0,2013-04-18 05:15:00
1:35 AM,62.6,62.6,100,30.09,4.0,Calm,Calm,-,N/A,,Clear,0,2013-04-18 05:35:00
1:55 AM,64.4,64.4,100,30.07,3.0,Calm,Calm,-,N/A,,Clear,0,2013-04-18 05:55:00
2:15 AM,64.4,64.4,100,30.07,5.0,Calm,Calm,-,N/A,,Clear,0,2013-04-18 06:15:00
2:35 AM,64.4,64.4,100,30.07,4.0,Calm,Calm,-,N/A,,Clear,0,2013-04-18 06:35:00
2:55 AM,62.6,62.6,100,30.06,4.0,Calm,Calm,-,N/A,,Clear,0,2013-04-18 06:55:00
3:15 AM,62.6,62.6,100,30.07,3.0,Calm,Calm,-,N/A,,Clear,0,2013-04-18 07:15:00
3:35 AM,62.6,62.6,100,30.06,3.0,Calm,Calm,-,N/A,,Clear,0,2013-04-18 07:35:00
3:55 AM,62.6,62.6,100,30.06,2.0,Calm,Calm,-,N/A,,Clear,0,2013-04-18 07:55:00
4:15 AM,59.0,59.0,100,30.06,3.0,Calm,Calm,-,N/A,,Clear,0,2013-04-18 08:15:00
4:35 AM,59.0,59.0,100,30.06,0.2,Calm,Calm,-,N/A,Fog,Fog,0,2013-04-18 08:35:00
4:55 AM,59.0,59.0,100,30.05,5.0,Calm,Calm,-,N/A,,Partly Cloudy,0,2013-04-18 08:55:00
5:15 AM,59.0,59.0,100,30.05,0.5,Calm,Calm,-,N/A,Fog,Fog,0,2013-04-18 09:15:00
5:35 AM,59.0,59.0,100,30.05,2.5,Calm,Calm,-,N/A,,Partly Cloudy,0,2013-04-18 09:35:00
5:55 AM,59.0,59.0,100,30.06,6.0,Calm,Calm,-,N/A,,Scattered Clouds,0,2013-04-18 09:55:00
6:15 AM,60.8,60.8,100,30.06,1.2,Calm,Calm,-,N/A,,Mostly Cloudy,0,2013-04-18 10:15:00
6:35 AM,60.8,60.8,100,30.06,4.0,Calm,Calm,-,N/A,,Partly Cloudy,0,2013-04-18 10:35:00
6:50 AM,59.0,59.0,100,30.06,7.0,Calm,Calm,-,N/A,,Partly Cloudy,0,2013-04-18 10:50:00
7:50 AM,59.0,59.0,100,30.07,7.0,Calm,Calm,-,N/A,,Clear,0,2013-04-18 11:50:00
8:50 AM,68.0,68.0,100,30.09,7.0,Calm,Calm,-,N/A,,Clear,0,2013-04-18 12:50:00
9:50 AM,75.2,68.0,78,30.09,7.0,Variable,4.6,-,N/A,,Partly Cloudy,0,2013-04-18 13:50:00
10:50 AM,82.4,64.4,54,30.09,7.0,ESE,13.8,-,N/A,,Scattered Clouds,120,2013-04-18 14:50:00
11:50 AM,80.6,62.6,54,30.08,7.0,SSE,13.8,-,N/A,,Scattered Clouds,150,2013-04-18 15:50:00
12:50 PM,82.4,62.6,51,30.06,10.0,SSE,9.2,-,N/A,,Mostly Cloudy,150,2013-04-18 16:50:00
1:50 PM,82.4,64.4,54,30.05,10.0,SE,15.0,-,N/A,,Mostly Cloudy,140,2013-04-18 17:50:00
2:50 PM,84.2,62.6,48,30.02,10.0,SE,8.1,-,N/A,,Scattered Clouds,140,2013-04-18 18:50:00
3:50 PM,84.2,66.2,55,30.01,10.0,SE,11.5,-,N/A,,Scattered Clouds,140,2013-04-18 19:50:00
4:50 PM,84.2,64.4,51,29.99,10.0,SE,5.8,-,N/A,,Scattered Clouds,140,2013-04-18 20:50:00
5:50 PM,82.4,64.4,54,29.98,10.0,SE,9.2,-,N/A,,Scattered Clouds,140,2013-04-18 21:50:00
6:50 PM,78.8,64.4,61,29.99,10.0,SE,9.2,-,N/A,,Scattered Clouds,140,2013-04-18 22:50:00
7:50 PM,75.2,64.4,69,29.99,10.0,SE,9.2,-,N/A,,Partly Cloudy,140,2013-04-18 23:50:00
8:15 PM,75.2,64.4,69,30.00,10.0,East,3.5,-,N/A,,Mostly Cloudy,100,2013-04-19 00:15:00
8:35 PM,75.2,64.4,69,30.01,10.0,East,4.6,-,N/A,,Overcast,100,2013-04-19 00:35:00
8:55 PM,75.2,64.4,69,30.01,10.0,ESE,3.5,-,N/A,,Overcast,110,2013-04-19 00:55:00
9:15 PM,73.4,64.4,73,30.01,10.0,ESE,3.5,-,N/A,,Partly Cloudy,110,2013-04-19 01:15:00
9:35 PM,73.4,64.4,73,30.02,10.0,ESE,3.5,-,N/A,,Clear,120,2013-04-19 01:35:00
10:55 PM,71.6,68.0,88,30.03,10.0,Calm,Calm,-,N/A,,Clear,0,2013-04-19 02:55:00
11:35 PM,71.6,69.8,94,30.02,10.0,ESE,4.6,-,N/A,,Clear,120,2013-04-19 03:35:00
11:55 PM,71.6,69.8,94,30.02,10.0,ESE,3.5,-,N/A,,Clear,110,2013-04-19 03:55:00